South Newbury, Vermont
Current Conditions -  °F | °C
As of 2:51 AM on Friday 19 Dec 2014 (Local Time) from KMPV Reporting Station
Overcast Overcast  
Wind Chill: 15°   Ceiling: 1100
Heat Index: 24°   Visibility: 10mi
Dew Point: 21°   Wind: 8mph
Humidity: 88%   Direction: 310°NW
Pressure: 29.91"   Gusts: NA
Location:  44.1081°N, 72.1208°W
Report Text: KMPV 190751Z AUTO 31007KT 10SM BKN011 OVC015 M04/M06 A2991 RMK AO2 SLP146 T10441061
Loading
Personal Weather Stations






























Interactive Weather Map New forecast layout! Learn more

10-Day Weather Forecast

Advertisements
Track Severe Weather on mobile